sensor_id;sensor_type;location;lat;lon;timestamp;P1;durP1;ratioP1;P2;durP2;ratioP2
41099;SDS011;26844;53.686;-6.346;2024-02-23T00:01:20;7.13;;;6.90;;
41099;SDS011;26844;53.686;-6.346;2024-02-23T00:03:45;7.13;;;6.90;;
41099;SDS011;26844;53.686;-6.346;2024-02-23T00:06:11;7.70;;;7.40;;
41099;SDS011;26844;53.686;-6.346;2024-02-23T00:08:37;7.72;;;7.43;;
41099;SDS011;26844;53.686;-6.346;2024-02-23T00:11:03;7.55;;;7.25;;
41099;SDS011;26844;53.686;-6.346;2024-02-23T00:13:28;7.57;;;7.28;;
41099;SDS011;26844;53.686;-6.346;2024-02-23T00:15:53;8.07;;;7.78;;
41099;SDS011;26844;53.686;-6.346;2024-02-23T00:18:19;7.97;;;7.68;;
41099;SDS011;26844;53.686;-6.346;2024-02-23T00:20:45;7.53;;;7.22;;
41099;SDS011;26844;53.686;-6.346;2024-02-23T00:23:11;7.45;;;7.15;;
41099;SDS011;26844;53.686;-6.346;2024-02-23T00:25:36;7.47;;;7.18;;
41099;SDS011;26844;53.686;-6.346;2024-02-23T00:28:01;7.68;;;7.38;;
41099;SDS011;26844;53.686;-6.346;2024-02-23T00:30:27;7.22;;;6.95;;
41099;SDS011;26844;53.686;-6.346;2024-02-23T00:32:52;7.00;;;6.80;;
41099;SDS011;26844;53.686;-6.346;2024-02-23T00:35:17;6.32;;;6.13;;
41099;SDS011;26844;53.686;-6.346;2024-02-23T00:37:43;6.53;;;6.32;;
41099;SDS011;26844;53.686;-6.346;2024-02-23T00:40:08;6.00;;;5.80;;
41099;SDS011;26844;53.686;-6.346;2024-02-23T00:42:35;5.88;;;5.68;;
41099;SDS011;26844;53.686;-6.346;2024-02-23T00:45:00;6.13;;;5.93;;
41099;SDS011;26844;53.686;-6.346;2024-02-23T00:47:26;5.57;;;5.38;;
41099;SDS011;26844;53.686;-6.346;2024-02-23T00:49:51;5.70;;;5.50;;
41099;SDS011;26844;53.686;-6.346;2024-02-23T00:52:16;6.05;;;5.85;;
41099;SDS011;26844;53.686;-6.346;2024-02-23T00:54:45;5.63;;;5.43;;
41099;SDS011;26844;53.686;-6.346;2024-02-23T00:57:11;6.47;;;6.28;;
41099;SDS011;26844;53.686;-6.346;2024-02-23T00:59:36;6.53;;;6.32;;
41099;SDS011;26844;53.686;-6.346;2024-02-23T01:02:01;6.72;;;6.53;;
41099;SDS011;26844;53.686;-6.346;2024-02-23T01:04:26;6.80;;;6.60;;
41099;SDS011;26844;53.686;-6.346;2024-02-23T01:06:52;7.00;;;6.80;;
41099;SDS011;26844;53.686;-6.346;2024-02-23T01:09:17;6.72;;;6.53;;
41099;SDS011;26844;53.686;-6.346;2024-02-23T01:11:48;7.18;;;6.93;;
41099;SDS011;26844;53.686;-6.346;2024-02-23T01:14:14;7.10;;;6.90;;
41099;SDS011;26844;53.686;-6.346;2024-02-23T01:16:39;7.35;;;7.05;;
41099;SDS011;26844;53.686;-6.346;2024-02-23T01:19:04;7.05;;;6.85;;
41099;SDS011;26844;53.686;-6.346;2024-02-23T01:21:29;6.72;;;6.53;;
41099;SDS011;26844;53.686;-6.346;2024-02-23T01:23:55;6.72;;;6.53;;
41099;SDS011;26844;53.686;-6.346;2024-02-23T01:26:22;6.70;;;6.50;;
41099;SDS011;26844;53.686;-6.346;2024-02-23T01:28:47;7.05;;;6.85;;
41099;SDS011;26844;53.686;-6.346;2024-02-23T01:31:12;6.60;;;6.40;;
41099;SDS011;26844;53.686;-6.346;2024-02-23T01:33:38;7.07;;;6.88;;
41099;SDS011;26844;53.686;-6.346;2024-02-23T01:36:04;7.40;;;7.10;;
41099;SDS011;26844;53.686;-6.346;2024-02-23T01:38:30;7.70;;;7.40;;
41099;SDS011;26844;53.686;-6.346;2024-02-23T01:40:57;7.95;;;7.65;;
41099;SDS011;26844;53.686;-6.346;2024-02-23T01:43:22;8.30;;;8.00;;
41099;SDS011;26844;53.686;-6.346;2024-02-23T01:45:48;8.30;;;8.00;;
41099;SDS011;26844;53.686;-6.346;2024-02-23T01:48:13;8.98;;;8.68;;
41099;SDS011;26844;53.686;-6.346;2024-02-23T01:50:38;8.80;;;8.50;;
41099;SDS011;26844;53.686;-6.346;2024-02-23T01:53:04;8.52;;;8.23;;
41099;SDS011;26844;53.686;-6.346;2024-02-23T01:55:30;8.73;;;8.43;;
41099;SDS011;26844;53.686;-6.346;2024-02-23T01:57:56;8.70;;;8.40;;
41099;SDS011;26844;53.686;-6.346;2024-02-23T02:00:21;8.60;;;8.30;;
41099;SDS011;26844;53.686;-6.346;2024-02-23T02:02:47;9.20;;;8.90;;
41099;SDS011;26844;53.686;-6.346;2024-02-23T02:05:12;9.30;;;9.00;;
41099;SDS011;26844;53.686;-6.346;2024-02-23T02:07:38;9.73;;;9.32;;
41099;SDS011;26844;53.686;-6.346;2024-02-23T02:10:06;9.50;;;9.15;;
41099;SDS011;26844;53.686;-6.346;2024-02-23T02:12:31;9.57;;;9.18;;
41099;SDS011;26844;53.686;-6.346;2024-02-23T02:14:57;9.35;;;9.05;;
41099;SDS011;26844;53.686;-6.346;2024-02-23T02:17:22;9.10;;;8.80;;
41099;SDS011;26844;53.686;-6.346;2024-02-23T02:19:47;8.77;;;8.48;;
41099;SDS011;26844;53.686;-6.346;2024-02-23T02:22:13;9.40;;;9.07;;
41099;SDS011;26844;53.686;-6.346;2024-02-23T02:24:38;9.30;;;9.00;;
41099;SDS011;26844;53.686;-6.346;2024-02-23T02:27:06;9.23;;;8.93;;
41099;SDS011;26844;53.686;-6.346;2024-02-23T02:29:31;9.30;;;9.00;;
41099;SDS011;26844;53.686;-6.346;2024-02-23T02:31:57;8.75;;;8.45;;
41099;SDS011;26844;53.686;-6.346;2024-02-23T02:34:22;9.10;;;8.80;;
41099;SDS011;26844;53.686;-6.346;2024-02-23T02:36:47;9.13;;;8.82;;
41099;SDS011;26844;53.686;-6.346;2024-02-23T02:39:13;8.55;;;8.25;;
41099;SDS011;26844;53.686;-6.346;2024-02-23T02:41:38;8.77;;;8.48;;
41099;SDS011;26844;53.686;-6.346;2024-02-23T02:44:03;8.73;;;8.43;;
41099;SDS011;26844;53.686;-6.346;2024-02-23T02:46:28;9.02;;;8.73;;
41099;SDS011;26844;53.686;-6.346;2024-02-23T02:48:54;8.80;;;8.50;;
41099;SDS011;26844;53.686;-6.346;2024-02-23T02:51:19;8.80;;;8.50;;
41099;SDS011;26844;53.686;-6.346;2024-02-23T02:53:44;8.30;;;8.00;;
41099;SDS011;26844;53.686;-6.346;2024-02-23T02:56:10;8.63;;;8.32;;
41099;SDS011;26844;53.686;-6.346;2024-02-23T02:58:35;8.02;;;7.72;;
41099;SDS011;26844;53.686;-6.346;2024-02-23T03:01:00;8.38;;;8.07;;
41099;SDS011;26844;53.686;-6.346;2024-02-23T03:03:25;7.80;;;7.50;;
41099;SDS011;26844;53.686;-6.346;2024-02-23T03:05:51;8.10;;;7.80;;
41099;SDS011;26844;53.686;-6.346;2024-02-23T03:08:16;8.05;;;7.75;;
41099;SDS011;26844;53.686;-6.346;2024-02-23T03:10:41;7.80;;;7.50;;
41099;SDS011;26844;53.686;-6.346;2024-02-23T03:13:06;7.80;;;7.50;;
41099;SDS011;26844;53.686;-6.346;2024-02-23T03:15:32;7.25;;;6.95;;
41099;SDS011;26844;53.686;-6.346;2024-02-23T03:17:58;7.55;;;7.25;;
41099;SDS011;26844;53.686;-6.346;2024-02-23T03:20:26;7.80;;;7.50;;
41099;SDS011;26844;53.686;-6.346;2024-02-23T03:22:51;7.47;;;7.18;;
41099;SDS011;26844;53.686;-6.346;2024-02-23T03:25:16;7.40;;;7.10;;
41099;SDS011;26844;53.686;-6.346;2024-02-23T03:27:41;7.00;;;6.80;;
41099;SDS011;26844;53.686;-6.346;2024-02-23T03:30:07;7.38;;;7.07;;
41099;SDS011;26844;53.686;-6.346;2024-02-23T03:32:33;7.00;;;6.80;;
41099;SDS011;26844;53.686;-6.346;2024-02-23T03:35:02;6.85;;;6.65;;
41099;SDS011;26844;53.686;-6.346;2024-02-23T03:37:28;7.38;;;7.07;;
41099;SDS011;26844;53.686;-6.346;2024-02-23T03:39:53;6.80;;;6.60;;
41099;SDS011;26844;53.686;-6.346;2024-02-23T03:42:18;6.80;;;6.60;;
41099;SDS011;26844;53.686;-6.346;2024-02-23T03:44:44;6.28;;;6.07;;
41099;SDS011;26844;53.686;-6.346;2024-02-23T03:47:09;6.18;;;5.97;;
41099;SDS011;26844;53.686;-6.346;2024-02-23T03:49:34;5.68;;;5.47;;
41099;SDS011;26844;53.686;-6.346;2024-02-23T03:51:59;5.60;;;5.40;;
41099;SDS011;26844;53.686;-6.346;2024-02-23T03:54:25;5.47;;;5.28;;
41099;SDS011;26844;53.686;-6.346;2024-02-23T03:56:50;5.25;;;5.05;;
41099;SDS011;26844;53.686;-6.346;2024-02-23T03:59:15;5.53;;;5.32;;
41099;SDS011;26844;53.686;-6.346;2024-02-23T04:01:40;5.25;;;5.05;;
41099;SDS011;26844;53.686;-6.346;2024-02-23T04:04:06;5.60;;;5.40;;
41099;SDS011;26844;53.686;-6.346;2024-02-23T04:06:31;5.70;;;5.50;;
41099;SDS011;26844;53.686;-6.346;2024-02-23T04:08:58;5.72;;;5.53;;
41099;SDS011;26844;53.686;-6.346;2024-02-23T04:11:23;6.10;;;5.90;;
41099;SDS011;26844;53.686;-6.346;2024-02-23T04:13:48;6.00;;;5.80;;
41099;SDS011;26844;53.686;-6.346;2024-02-23T04:16:14;5.88;;;5.68;;
41099;SDS011;26844;53.686;-6.346;2024-02-23T04:18:39;6.80;;;6.60;;
41099;SDS011;26844;53.686;-6.346;2024-02-23T04:21:04;6.47;;;6.28;;
41099;SDS011;26844;53.686;-6.346;2024-02-23T04:23:30;6.68;;;6.47;;
41099;SDS011;26844;53.686;-6.346;2024-02-23T04:25:55;6.78;;;6.57;;
41099;SDS011;26844;53.686;-6.346;2024-02-23T04:28:21;6.53;;;6.32;;
41099;SDS011;26844;53.686;-6.346;2024-02-23T04:30:46;6.43;;;6.22;;
41099;SDS011;26844;53.686;-6.346;2024-02-23T04:33:11;6.10;;;5.90;;
41099;SDS011;26844;53.686;-6.346;2024-02-23T04:35:36;6.15;;;5.95;;
41099;SDS011;26844;53.686;-6.346;2024-02-23T04:38:02;6.25;;;6.05;;
41099;SDS011;26844;53.686;-6.346;2024-02-23T04:40:27;6.40;;;6.20;;
41099;SDS011;26844;53.686;-6.346;2024-02-23T04:42:52;6.00;;;5.80;;
41099;SDS011;26844;53.686;-6.346;2024-02-23T04:45:18;6.22;;;6.03;;
41099;SDS011;26844;53.686;-6.346;2024-02-23T04:47:43;6.30;;;6.10;;
41099;SDS011;26844;53.686;-6.346;2024-02-23T04:50:09;6.00;;;5.80;;
41099;SDS011;26844;53.686;-6.346;2024-02-23T04:52:35;6.18;;;5.97;;
41099;SDS011;26844;53.686;-6.346;2024-02-23T04:55:00;6.22;;;6.03;;
41099;SDS011;26844;53.686;-6.346;2024-02-23T04:57:26;6.20;;;6.00;;
41099;SDS011;26844;53.686;-6.346;2024-02-23T04:59:51;6.60;;;6.40;;
41099;SDS011;26844;53.686;-6.346;2024-02-23T05:02:17;6.15;;;5.95;;
41099;SDS011;26844;53.686;-6.346;2024-02-23T05:04:42;6.43;;;6.22;;
41099;SDS011;26844;53.686;-6.346;2024-02-23T05:07:07;7.03;;;6.80;;
41099;SDS011;26844;53.686;-6.346;2024-02-23T05:09:33;6.43;;;6.22;;
41099;SDS011;26844;53.686;-6.346;2024-02-23T05:12:00;7.18;;;6.93;;
41099;SDS011;26844;53.686;-6.346;2024-02-23T05:14:25;6.80;;;6.60;;
41099;SDS011;26844;53.686;-6.346;2024-02-23T05:16:51;7.38;;;7.07;;
41099;SDS011;26844;53.686;-6.346;2024-02-23T05:19:16;7.30;;;7.00;;
41099;SDS011;26844;53.686;-6.346;2024-02-23T05:21:42;7.57;;;7.28;;
41099;SDS011;26844;53.686;-6.346;2024-02-23T05:24:07;7.30;;;7.00;;
41099;SDS011;26844;53.686;-6.346;2024-02-23T05:26:32;7.00;;;6.80;;
41099;SDS011;26844;53.686;-6.346;2024-02-23T05:28:57;7.15;;;6.90;;
41099;SDS011;26844;53.686;-6.346;2024-02-23T05:31:43;6.63;;;6.43;;
41099;SDS011;26844;53.686;-6.346;2024-02-23T05:34:08;7.32;;;7.03;;
41099;SDS011;26844;53.686;-6.346;2024-02-23T05:36:34;7.15;;;6.90;;
41099;SDS011;26844;53.686;-6.346;2024-02-23T05:38:59;7.68;;;7.38;;
41099;SDS011;26844;53.686;-6.346;2024-02-23T05:41:24;7.53;;;7.22;;
41099;SDS011;26844;53.686;-6.346;2024-02-23T05:43:50;7.60;;;7.30;;
41099;SDS011;26844;53.686;-6.346;2024-02-23T05:46:15;7.60;;;7.30;;
41099;SDS011;26844;53.686;-6.346;2024-02-23T05:48:40;7.20;;;6.90;;
41099;SDS011;26844;53.686;-6.346;2024-02-23T05:51:06;7.63;;;7.32;;
41099;SDS011;26844;53.686;-6.346;2024-02-23T05:53:31;7.47;;;7.18;;
41099;SDS011;26844;53.686;-6.346;2024-02-23T05:55:58;7.68;;;7.38;;
41099;SDS011;26844;53.686;-6.346;2024-02-23T05:58:23;7.90;;;7.60;;
41099;SDS011;26844;53.686;-6.346;2024-02-23T06:00:49;8.40;;;8.10;;
41099;SDS011;26844;53.686;-6.346;2024-02-23T06:03:15;8.20;;;7.90;;
41099;SDS011;26844;53.686;-6.346;2024-02-23T06:05:40;8.40;;;8.10;;
41099;SDS011;26844;53.686;-6.346;2024-02-23T06:08:05;8.45;;;8.15;;
41099;SDS011;26844;53.686;-6.346;2024-02-23T06:10:31;8.60;;;8.30;;
41099;SDS011;26844;53.686;-6.346;2024-02-23T06:12:56;8.10;;;7.80;;
41099;SDS011;26844;53.686;-6.346;2024-02-23T06:15:21;8.10;;;7.80;;
41099;SDS011;26844;53.686;-6.346;2024-02-23T06:17:47;7.72;;;7.43;;
41099;SDS011;26844;53.686;-6.346;2024-02-23T06:20:13;8.15;;;7.85;;
41099;SDS011;26844;53.686;-6.346;2024-02-23T06:22:38;8.07;;;7.78;;
41099;SDS011;26844;53.686;-6.346;2024-02-23T06:25:04;7.75;;;7.45;;
41099;SDS011;26844;53.686;-6.346;2024-02-23T06:27:29;7.40;;;7.10;;
41099;SDS011;26844;53.686;-6.346;2024-02-23T06:29:55;8.32;;;8.02;;
41099;SDS011;26844;53.686;-6.346;2024-02-23T06:32:20;8.38;;;8.07;;
41099;SDS011;26844;53.686;-6.346;2024-02-23T06:34:46;8.55;;;8.25;;
41099;SDS011;26844;53.686;-6.346;2024-02-23T06:37:11;8.32;;;8.02;;
41099;SDS011;26844;53.686;-6.346;2024-02-23T06:39:37;8.88;;;8.57;;
41099;SDS011;26844;53.686;-6.346;2024-02-23T06:42:02;8.80;;;8.50;;
41099;SDS011;26844;53.686;-6.346;2024-02-23T06:44:29;8.80;;;8.50;;
41099;SDS011;26844;53.686;-6.346;2024-02-23T06:46:55;9.13;;;8.82;;
41099;SDS011;26844;53.686;-6.346;2024-02-23T06:49:20;8.80;;;8.50;;
41099;SDS011;26844;53.686;-6.346;2024-02-23T06:51:46;9.35;;;9.05;;
41099;SDS011;26844;53.686;-6.346;2024-02-23T06:54:11;8.85;;;8.55;;
41099;SDS011;26844;53.686;-6.346;2024-02-23T06:56:36;8.10;;;7.80;;
41099;SDS011;26844;53.686;-6.346;2024-02-23T06:59:02;8.50;;;8.20;;
41099;SDS011;26844;53.686;-6.346;2024-02-23T07:01:27;9.13;;;8.82;;
41099;SDS011;26844;53.686;-6.346;2024-02-23T07:03:53;8.80;;;8.50;;
41099;SDS011;26844;53.686;-6.346;2024-02-23T07:06:19;9.10;;;8.80;;
41099;SDS011;26844;53.686;-6.346;2024-02-23T07:08:44;9.77;;;9.38;;
41099;SDS011;26844;53.686;-6.346;2024-02-23T07:11:10;9.20;;;8.90;;
41099;SDS011;26844;53.686;-6.346;2024-02-23T07:13:36;9.77;;;9.38;;
41099;SDS011;26844;53.686;-6.346;2024-02-23T07:16:02;9.15;;;8.85;;
41099;SDS011;26844;53.686;-6.346;2024-02-23T07:18:28;9.77;;;9.38;;
41099;SDS011;26844;53.686;-6.346;2024-02-23T07:20:53;9.30;;;9.00;;
41099;SDS011;26844;53.686;-6.346;2024-02-23T07:23:19;9.55;;;9.15;;
41099;SDS011;26844;53.686;-6.346;2024-02-23T07:25:45;9.68;;;9.27;;
41099;SDS011;26844;53.686;-6.346;2024-02-23T07:28:10;9.30;;;9.00;;
41099;SDS011;26844;53.686;-6.346;2024-02-23T07:30:36;9.90;;;9.50;;
41099;SDS011;26844;53.686;-6.346;2024-02-23T07:33:02;9.15;;;8.85;;
41099;SDS011;26844;53.686;-6.346;2024-02-23T07:35:31;9.40;;;9.05;;
41099;SDS011;26844;53.686;-6.346;2024-02-23T07:37:56;9.70;;;9.30;;
41099;SDS011;26844;53.686;-6.346;2024-02-23T07:40:24;9.90;;;9.50;;
41099;SDS011;26844;53.686;-6.346;2024-02-23T07:42:50;10.10;;;9.70;;
41099;SDS011;26844;53.686;-6.346;2024-02-23T07:45:15;10.40;;;10.00;;
41099;SDS011;26844;53.686;-6.346;2024-02-23T07:47:41;9.90;;;9.50;;
41099;SDS011;26844;53.686;-6.346;2024-02-23T07:50:07;9.90;;;9.50;;
41099;SDS011;26844;53.686;-6.346;2024-02-23T07:52:33;9.70;;;9.30;;
41099;SDS011;26844;53.686;-6.346;2024-02-23T07:54:59;9.18;;;8.88;;
41099;SDS011;26844;53.686;-6.346;2024-02-23T07:57:28;9.55;;;9.15;;
41099;SDS011;26844;53.686;-6.346;2024-02-23T07:59:53;9.82;;;9.43;;
41099;SDS011;26844;53.686;-6.346;2024-02-23T08:02:19;10.02;;;9.63;;
41099;SDS011;26844;53.686;-6.346;2024-02-23T08:04:45;9.90;;;9.50;;
41099;SDS011;26844;53.686;-6.346;2024-02-23T08:07:16;10.02;;;9.63;;
41099;SDS011;26844;53.686;-6.346;2024-02-23T08:09:51;9.68;;;9.27;;
41099;SDS011;26844;53.686;-6.346;2024-02-23T08:12:16;9.60;;;9.20;;
41099;SDS011;26844;53.686;-6.346;2024-02-23T08:14:41;8.90;;;8.60;;
41099;SDS011;26844;53.686;-6.346;2024-02-23T08:17:07;8.93;;;8.63;;
41099;SDS011;26844;53.686;-6.346;2024-02-23T08:19:32;8.90;;;8.60;;
41099;SDS011;26844;53.686;-6.346;2024-02-23T08:21:58;9.75;;;9.35;;
41099;SDS011;26844;53.686;-6.346;2024-02-23T08:24:23;8.90;;;8.60;;
41099;SDS011;26844;53.686;-6.346;2024-02-23T08:26:48;8.50;;;8.20;;
41099;SDS011;26844;53.686;-6.346;2024-02-23T08:29:13;8.35;;;8.05;;
41099;SDS011;26844;53.686;-6.346;2024-02-23T08:31:39;8.60;;;8.30;;
41099;SDS011;26844;53.686;-6.346;2024-02-23T08:34:04;8.02;;;7.72;;
41099;SDS011;26844;53.686;-6.346;2024-02-23T08:36:29;8.10;;;7.80;;
41099;SDS011;26844;53.686;-6.346;2024-02-23T08:38:54;8.55;;;8.25;;
41099;SDS011;26844;53.686;-6.346;2024-02-23T08:41:20;7.30;;;7.00;;
41099;SDS011;26844;53.686;-6.346;2024-02-23T08:43:45;7.32;;;7.03;;
41099;SDS011;26844;53.686;-6.346;2024-02-23T08:46:11;7.35;;;7.05;;
41099;SDS011;26844;53.686;-6.346;2024-02-23T08:48:36;6.75;;;6.55;;
41099;SDS011;26844;53.686;-6.346;2024-02-23T08:51:01;6.20;;;6.00;;
41099;SDS011;26844;53.686;-6.346;2024-02-23T08:53:27;6.00;;;5.80;;
41099;SDS011;26844;53.686;-6.346;2024-02-23T08:55:52;6.10;;;5.90;;
41099;SDS011;26844;53.686;-6.346;2024-02-23T08:58:20;5.35;;;5.15;;
41099;SDS011;26844;53.686;-6.346;2024-02-23T09:00:45;5.22;;;5.03;;
41099;SDS011;26844;53.686;-6.346;2024-02-23T09:03:11;4.80;;;4.65;;
41099;SDS011;26844;53.686;-6.346;2024-02-23T09:05:36;4.60;;;4.50;;
41099;SDS011;26844;53.686;-6.346;2024-02-23T09:08:04;4.75;;;4.63;;
41099;SDS011;26844;53.686;-6.346;2024-02-23T09:10:30;4.55;;;4.45;;
41099;SDS011;26844;53.686;-6.346;2024-02-23T09:15:26;3.90;;;3.80;;
41099;SDS011;26844;53.686;-6.346;2024-02-23T09:17:51;4.03;;;3.92;;
41099;SDS011;26844;53.686;-6.346;2024-02-23T09:20:18;3.85;;;3.75;;
41099;SDS011;26844;53.686;-6.346;2024-02-23T09:22:46;3.78;;;3.67;;
41099;SDS011;26844;53.686;-6.346;2024-02-23T09:25:12;4.43;;;4.32;;
41099;SDS011;26844;53.686;-6.346;2024-02-23T09:27:37;3.78;;;3.67;;
41099;SDS011;26844;53.686;-6.346;2024-02-23T09:30:09;4.05;;;3.95;;
41099;SDS011;26844;53.686;-6.346;2024-02-23T09:32:35;3.50;;;3.40;;
41099;SDS011;26844;53.686;-6.346;2024-02-23T09:35:01;3.72;;;3.63;;
41099;SDS011;26844;53.686;-6.346;2024-02-23T09:37:26;3.58;;;3.47;;
41099;SDS011;26844;53.686;-6.346;2024-02-23T09:39:54;3.47;;;3.38;;
41099;SDS011;26844;53.686;-6.346;2024-02-23T09:42:19;3.47;;;3.38;;
41099;SDS011;26844;53.686;-6.346;2024-02-23T09:44:54;3.28;;;3.17;;
41099;SDS011;26844;53.686;-6.346;2024-02-23T09:47:27;3.40;;;3.30;;
41099;SDS011;26844;53.686;-6.346;2024-02-23T09:50:11;2.70;;;2.60;;
41099;SDS011;26844;53.686;-6.346;2024-02-23T09:52:37;2.80;;;2.70;;
41099;SDS011;26844;53.686;-6.346;2024-02-23T09:55:04;2.20;;;2.20;;
41099;SDS011;26844;53.686;-6.346;2024-02-23T09:57:30;2.67;;;2.58;;
41099;SDS011;26844;53.686;-6.346;2024-02-23T09:59:55;2.10;;;2.10;;
41099;SDS011;26844;53.686;-6.346;2024-02-23T10:02:23;2.20;;;2.20;;
41099;SDS011;26844;53.686;-6.346;2024-02-23T10:04:51;2.17;;;2.17;;
41099;SDS011;26844;53.686;-6.346;2024-02-23T10:07:21;2.42;;;2.35;;
41099;SDS011;26844;53.686;-6.346;2024-02-23T10:09:48;2.13;;;2.13;;
41099;SDS011;26844;53.686;-6.346;2024-02-23T10:12:15;1.90;;;1.90;;
41099;SDS011;26844;53.686;-6.346;2024-02-23T10:14:41;2.47;;;2.37;;
41099;SDS011;26844;53.686;-6.346;2024-02-23T10:17:06;2.03;;;2.03;;
41099;SDS011;26844;53.686;-6.346;2024-02-23T10:19:34;2.20;;;2.20;;
41099;SDS011;26844;53.686;-6.346;2024-02-23T10:22:02;1.80;;;1.80;;
41099;SDS011;26844;53.686;-6.346;2024-02-23T10:24:28;2.22;;;2.22;;
41099;SDS011;26844;53.686;-6.346;2024-02-23T10:27:00;2.20;;;2.20;;
41099;SDS011;26844;53.686;-6.346;2024-02-23T10:29:27;2.35;;;2.30;;
41099;SDS011;26844;53.686;-6.346;2024-02-23T10:31:52;2.60;;;2.50;;
41099;SDS011;26844;53.686;-6.346;2024-02-23T10:34:19;2.58;;;2.47;;
41099;SDS011;26844;53.686;-6.346;2024-02-23T10:36:46;2.22;;;2.22;;
41099;SDS011;26844;53.686;-6.346;2024-02-23T10:41:41;1.70;;;1.70;;
41099;SDS011;26844;53.686;-6.346;2024-02-23T10:44:08;2.15;;;2.15;;
41099;SDS011;26844;53.686;-6.346;2024-02-23T10:46:34;2.15;;;2.15;;
41099;SDS011;26844;53.686;-6.346;2024-02-23T10:49:00;2.20;;;2.20;;
41099;SDS011;26844;53.686;-6.346;2024-02-23T10:51:26;2.45;;;2.35;;
41099;SDS011;26844;53.686;-6.346;2024-02-23T10:53:52;2.10;;;2.10;;
41099;SDS011;26844;53.686;-6.346;2024-02-23T10:56:17;2.00;;;2.00;;
41099;SDS011;26844;53.686;-6.346;2024-02-23T10:58:43;2.00;;;2.00;;
41099;SDS011;26844;53.686;-6.346;2024-02-23T11:01:11;1.83;;;1.83;;
41099;SDS011;26844;53.686;-6.346;2024-02-23T11:03:38;2.10;;;2.10;;
41099;SDS011;26844;53.686;-6.346;2024-02-23T11:06:07;1.90;;;1.90;;
41099;SDS011;26844;53.686;-6.346;2024-02-23T11:08:33;1.70;;;1.70;;
41099;SDS011;26844;53.686;-6.346;2024-02-23T11:11:06;1.70;;;1.70;;
41099;SDS011;26844;53.686;-6.346;2024-02-23T11:13:38;1.67;;;1.67;;
41099;SDS011;26844;53.686;-6.346;2024-02-23T11:16:04;1.65;;;1.65;;
41099;SDS011;26844;53.686;-6.346;2024-02-23T11:18:30;1.55;;;1.55;;
41099;SDS011;26844;53.686;-6.346;2024-02-23T11:20:58;1.80;;;1.80;;
41099;SDS011;26844;53.686;-6.346;2024-02-23T11:26:04;1.60;;;1.60;;
41099;SDS011;26844;53.686;-6.346;2024-02-23T11:28:29;1.42;;;1.42;;
41099;SDS011;26844;53.686;-6.346;2024-02-23T11:30:56;1.40;;;1.40;;
41099;SDS011;26844;53.686;-6.346;2024-02-23T11:33:34;1.40;;;1.40;;
41099;SDS011;26844;53.686;-6.346;2024-02-23T11:36:06;1.48;;;1.48;;
41099;SDS011;26844;53.686;-6.346;2024-02-23T11:38:32;1.42;;;1.42;;
41099;SDS011;26844;53.686;-6.346;2024-02-23T11:40:59;1.38;;;1.38;;
41099;SDS011;26844;53.686;-6.346;2024-02-23T11:43:25;1.42;;;1.42;;
41099;SDS011;26844;53.686;-6.346;2024-02-23T11:45:50;1.63;;;1.63;;
41099;SDS011;26844;53.686;-6.346;2024-02-23T11:48:16;1.40;;;1.40;;
41099;SDS011;26844;53.686;-6.346;2024-02-23T11:50:41;1.45;;;1.45;;
41099;SDS011;26844;53.686;-6.346;2024-02-23T11:53:07;1.50;;;1.50;;
41099;SDS011;26844;53.686;-6.346;2024-02-23T11:55:33;1.60;;;1.60;;
41099;SDS011;26844;53.686;-6.346;2024-02-23T11:57:58;1.50;;;1.50;;
41099;SDS011;26844;53.686;-6.346;2024-02-23T12:00:24;1.40;;;1.40;;
41099;SDS011;26844;53.686;-6.346;2024-02-23T12:02:49;1.30;;;1.30;;
41099;SDS011;26844;53.686;-6.346;2024-02-23T12:05:15;1.40;;;1.40;;
41099;SDS011;26844;53.686;-6.346;2024-02-23T12:07:42;1.20;;;1.20;;
41099;SDS011;26844;53.686;-6.346;2024-02-23T12:10:08;1.30;;;1.30;;
41099;SDS011;26844;53.686;-6.346;2024-02-23T12:12:33;1.38;;;1.38;;
41099;SDS011;26844;53.686;-6.346;2024-02-23T12:14:59;1.30;;;1.30;;
41099;SDS011;26844;53.686;-6.346;2024-02-23T12:17:24;1.27;;;1.27;;
41099;SDS011;26844;53.686;-6.346;2024-02-23T12:19:57;1.30;;;1.30;;
41099;SDS011;26844;53.686;-6.346;2024-02-23T12:22:24;1.00;;;1.00;;
41099;SDS011;26844;53.686;-6.346;2024-02-23T12:24:49;1.20;;;1.20;;
41099;SDS011;26844;53.686;-6.346;2024-02-23T12:27:16;1.00;;;1.00;;
41099;SDS011;26844;53.686;-6.346;2024-02-23T12:29:41;1.30;;;1.30;;
41099;SDS011;26844;53.686;-6.346;2024-02-23T12:32:07;1.20;;;1.20;;
41099;SDS011;26844;53.686;-6.346;2024-02-23T12:34:32;1.30;;;1.30;;
41099;SDS011;26844;53.686;-6.346;2024-02-23T12:36:57;1.17;;;1.17;;
41099;SDS011;26844;53.686;-6.346;2024-02-23T12:39:23;1.10;;;1.10;;
41099;SDS011;26844;53.686;-6.346;2024-02-23T12:41:48;1.02;;;1.02;;
41099;SDS011;26844;53.686;-6.346;2024-02-23T12:44:13;1.02;;;1.02;;
41099;SDS011;26844;53.686;-6.346;2024-02-23T12:46:39;1.17;;;1.17;;
41099;SDS011;26844;53.686;-6.346;2024-02-23T12:49:04;1.08;;;1.08;;
41099;SDS011;26844;53.686;-6.346;2024-02-23T12:51:29;1.30;;;1.30;;
41099;SDS011;26844;53.686;-6.346;2024-02-23T12:53:55;1.10;;;1.10;;
41099;SDS011;26844;53.686;-6.346;2024-02-23T12:56:20;1.00;;;1.00;;
41099;SDS011;26844;53.686;-6.346;2024-02-23T12:58:45;1.20;;;1.20;;
41099;SDS011;26844;53.686;-6.346;2024-02-23T13:01:11;1.13;;;1.13;;
41099;SDS011;26844;53.686;-6.346;2024-02-23T13:03:37;1.00;;;1.00;;
41099;SDS011;26844;53.686;-6.346;2024-02-23T13:06:02;1.25;;;1.25;;
41099;SDS011;26844;53.686;-6.346;2024-02-23T13:08:28;1.50;;;1.50;;
41099;SDS011;26844;53.686;-6.346;2024-02-23T13:10:54;1.20;;;1.20;;
41099;SDS011;26844;53.686;-6.346;2024-02-23T13:13:20;1.30;;;1.30;;
41099;SDS011;26844;53.686;-6.346;2024-02-23T13:15:49;1.10;;;1.10;;
41099;SDS011;26844;53.686;-6.346;2024-02-23T13:18:14;1.40;;;1.40;;
41099;SDS011;26844;53.686;-6.346;2024-02-23T13:20:39;1.25;;;1.25;;
41099;SDS011;26844;53.686;-6.346;2024-02-23T13:23:07;1.50;;;1.50;;
41099;SDS011;26844;53.686;-6.346;2024-02-23T13:25:33;1.50;;;1.50;;
41099;SDS011;26844;53.686;-6.346;2024-02-23T13:27:58;1.00;;;1.00;;
41099;SDS011;26844;53.686;-6.346;2024-02-23T13:30:24;1.00;;;1.00;;
41099;SDS011;26844;53.686;-6.346;2024-02-23T13:32:49;0.98;;;0.98;;
41099;SDS011;26844;53.686;-6.346;2024-02-23T13:35:17;1.02;;;1.02;;
41099;SDS011;26844;53.686;-6.346;2024-02-23T13:37:43;1.20;;;1.20;;
41099;SDS011;26844;53.686;-6.346;2024-02-23T13:40:08;1.20;;;1.20;;
41099;SDS011;26844;53.686;-6.346;2024-02-23T13:42:34;1.00;;;1.00;;
41099;SDS011;26844;53.686;-6.346;2024-02-23T13:44:59;1.20;;;1.20;;
41099;SDS011;26844;53.686;-6.346;2024-02-23T13:47:24;1.20;;;1.20;;
41099;SDS011;26844;53.686;-6.346;2024-02-23T13:49:50;1.30;;;1.30;;
41099;SDS011;26844;53.686;-6.346;2024-02-23T13:52:15;1.40;;;1.40;;
41099;SDS011;26844;53.686;-6.346;2024-02-23T13:54:40;1.25;;;1.25;;
41099;SDS011;26844;53.686;-6.346;2024-02-23T13:57:05;1.10;;;1.10;;
41099;SDS011;26844;53.686;-6.346;2024-02-23T13:59:31;1.10;;;1.10;;
41099;SDS011;26844;53.686;-6.346;2024-02-23T14:01:56;1.65;;;1.65;;
41099;SDS011;26844;53.686;-6.346;2024-02-23T14:04:21;1.90;;;1.90;;
41099;SDS011;26844;53.686;-6.346;2024-02-23T14:06:46;1.90;;;1.90;;
41099;SDS011;26844;53.686;-6.346;2024-02-23T14:09:12;1.80;;;1.80;;
41099;SDS011;26844;53.686;-6.346;2024-02-23T14:11:37;1.52;;;1.52;;
41099;SDS011;26844;53.686;-6.346;2024-02-23T14:14:02;1.45;;;1.45;;
41099;SDS011;26844;53.686;-6.346;2024-02-23T14:16:28;1.40;;;1.40;;
41099;SDS011;26844;53.686;-6.346;2024-02-23T14:18:53;1.00;;;1.00;;
41099;SDS011;26844;53.686;-6.346;2024-02-23T14:21:18;1.10;;;1.10;;
41099;SDS011;26844;53.686;-6.346;2024-02-23T14:23:46;1.23;;;1.23;;
41099;SDS011;26844;53.686;-6.346;2024-02-23T14:26:11;1.35;;;1.35;;
41099;SDS011;26844;53.686;-6.346;2024-02-23T14:28:37;1.00;;;1.00;;
41099;SDS011;26844;53.686;-6.346;2024-02-23T14:31:02;1.20;;;1.20;;
41099;SDS011;26844;53.686;-6.346;2024-02-23T14:33:28;0.88;;;0.88;;